createdAt,value
2024-02-24T00:02:05.026Z,99193.38
2024-02-24T00:04:37.005Z,99182.88
2024-02-24T00:07:09.038Z,99195.09
2024-02-24T00:09:41.012Z,99187.25
2024-02-24T00:12:13.080Z,99202.09
2024-02-24T00:14:45.244Z,99202.09
2024-02-24T00:17:17.935Z,99202.03
2024-02-24T00:19:49.910Z,99192.50
2024-02-24T00:22:21.908Z,99197.72
2024-02-24T00:24:53.861Z,99177.38
2024-02-24T00:27:25.831Z,99198.53
2024-02-24T00:29:57.750Z,99194.09
2024-02-24T00:32:29.761Z,99198.50
2024-02-24T00:35:01.906Z,99191.53
2024-02-24T00:37:33.826Z,99193.31
2024-02-24T00:40:07.008Z,99197.59
2024-02-24T00:42:39.010Z,99196.72
2024-02-24T00:45:11.027Z,99201.06
2024-02-24T00:47:43.054Z,99198.44
2024-02-24T00:50:16.100Z,99197.47
2024-02-24T00:52:48.154Z,99193.94
2024-02-24T00:55:20.230Z,99201.72
2024-02-24T00:57:52.242Z,99189.53
2024-02-24T01:00:24.775Z,99210.50
2024-02-24T01:02:56.831Z,99201.75
2024-02-24T01:05:28.959Z,99213.97
2024-02-24T01:08:00.955Z,99205.28
2024-02-24T01:10:32.909Z,99214.03
2024-02-24T01:13:04.978Z,99208.88
2024-02-24T01:15:37.004Z,99205.41
2024-02-24T01:18:09.073Z,99213.22
2024-02-24T01:20:41.324Z,99205.31
2024-02-24T01:23:13.340Z,99207.03
2024-02-24T01:25:46.404Z,99212.16
2024-02-24T01:28:18.832Z,99212.09
2024-02-24T01:30:50.815Z,99215.53
2024-02-24T01:33:22.872Z,99217.28
2024-02-24T01:35:56.057Z,99200.75
2024-02-24T01:38:27.985Z,99207.75
2024-02-24T01:41:00.072Z,99206.91
2024-02-24T01:43:33.459Z,99212.06
2024-02-24T01:46:08.450Z,99218.03
2024-02-24T01:48:41.321Z,99214.50
2024-02-24T01:51:16.687Z,99210.19
2024-02-24T01:53:49.334Z,99212.75
2024-02-24T01:56:23.276Z,99214.53
2024-02-24T01:58:55.520Z,99213.69
2024-02-24T02:01:28.636Z,99207.59
2024-02-24T02:04:00.627Z,99215.53
2024-02-24T02:06:33.817Z,99212.88
2024-02-24T02:09:05.904Z,99218.91
2024-02-24T02:11:47.906Z,99221.44
2024-02-24T02:14:28.464Z,99228.41
2024-02-24T02:17:00.496Z,99227.44
2024-02-24T02:19:32.554Z,99234.44
2024-02-24T02:22:10.073Z,99231.88
2024-02-24T02:24:42.335Z,99231.91
2024-02-24T02:27:14.408Z,99234.50
2024-02-24T02:29:46.452Z,99232.66
2024-02-24T02:32:18.495Z,99236.16
2024-02-24T02:34:50.428Z,99234.44
2024-02-24T02:37:22.376Z,99237.03
2024-02-24T02:39:54.867Z,99239.66
2024-02-24T02:42:26.815Z,99244.88
2024-02-24T02:44:58.815Z,99243.09
2024-02-24T02:47:31.024Z,99244.75
2024-02-24T02:50:03.266Z,99248.19
2024-02-24T02:52:36.426Z,99248.19
2024-02-24T02:55:09.015Z,99249.03
2024-02-24T02:57:40.962Z,99249.97
2024-02-24T03:00:13.756Z,99249.16
2024-02-24T03:02:45.824Z,99241.13
2024-02-24T03:05:17.933Z,99212.22
2024-02-24T03:07:49.921Z,99247.44
2024-02-24T03:10:21.948Z,99249.19
2024-02-24T03:12:53.977Z,99250.03
2024-02-24T03:15:25.946Z,99253.53
2024-02-24T03:17:58.100Z,99248.38
2024-02-24T03:20:30.160Z,99246.78
2024-02-24T03:23:05.258Z,99238.88
2024-02-24T03:25:37.962Z,99250.22
2024-02-24T03:28:09.906Z,99245.00
2024-02-24T03:30:42.053Z,99253.84
2024-02-24T03:33:14.173Z,99244.16
2024-02-24T03:35:46.275Z,99260.78
2024-02-24T03:38:18.257Z,99261.63
2024-02-24T03:40:50.576Z,99262.50
2024-02-24T03:43:22.495Z,99250.22
2024-02-24T03:45:54.502Z,99223.00
2024-02-24T03:48:26.615Z,99246.72
2024-02-24T03:51:00.023Z,99251.94
2024-02-24T03:53:32.316Z,99247.63
2024-02-24T03:56:04.703Z,99246.72
2024-02-24T03:58:36.723Z,99246.72
2024-02-24T04:01:08.805Z,99248.56
2024-02-24T04:03:41.083Z,99251.19
2024-02-24T04:06:13.160Z,99245.81
2024-02-24T04:08:45.154Z,99258.81
2024-02-24T04:11:17.253Z,99263.97
2024-02-24T04:13:49.247Z,99258.75
2024-02-24T04:16:21.553Z,99271.84
2024-02-24T04:18:53.590Z,99279.69
2024-02-24T04:21:25.666Z,99284.91
2024-02-24T04:23:57.709Z,99286.50
2024-02-24T04:26:29.714Z,99282.03
2024-02-24T04:29:01.850Z,99284.78
2024-02-24T04:31:33.772Z,99279.63
2024-02-24T04:34:05.980Z,99283.19
2024-02-24T04:36:43.209Z,99287.50
2024-02-24T04:39:15.842Z,99289.16
2024-02-24T04:41:47.980Z,99307.44
2024-02-24T04:44:20.034Z,99297.84
2024-02-24T04:46:51.962Z,99310.13
2024-02-24T04:49:23.946Z,99299.56
2024-02-24T04:51:56.110Z,99277.50
2024-02-24T04:54:28.054Z,99311.97
2024-02-24T04:56:59.999Z,99311.97
2024-02-24T04:59:32.104Z,99284.59
2024-02-24T05:02:04.355Z,99312.78
2024-02-24T05:04:36.324Z,99309.22
2024-02-24T05:07:08.380Z,99312.66
2024-02-24T05:09:40.467Z,99316.16
2024-02-24T05:12:12.533Z,99326.69
2024-02-24T05:14:48.434Z,99333.59
2024-02-24T05:17:20.481Z,99328.31
2024-02-24T05:19:52.753Z,99326.69
2024-02-24T05:22:24.816Z,99324.88
2024-02-24T05:24:56.762Z,99318.84
2024-02-24T05:27:28.788Z,99321.38
2024-02-24T05:30:03.785Z,99317.03
2024-02-24T05:32:36.020Z,99322.22
2024-02-24T05:35:08.741Z,99322.25
2024-02-24T05:37:40.642Z,99332.69
2024-02-24T05:40:13.639Z,99334.50
2024-02-24T05:42:45.579Z,99336.41
2024-02-24T05:45:18.097Z,99339.97
2024-02-24T05:47:50.099Z,99347.78
2024-02-24T05:50:22.159Z,99337.31
2024-02-24T05:52:54.099Z,99341.63
2024-02-24T05:55:26.160Z,99350.34
2024-02-24T05:57:58.312Z,99351.25
2024-02-24T06:00:30.258Z,99357.38
2024-02-24T06:03:02.451Z,99359.13
2024-02-24T06:05:34.486Z,99357.41
2024-02-24T06:08:07.149Z,99352.19
2024-02-24T06:10:39.848Z,99355.75
2024-02-24T06:13:11.848Z,99366.13
2024-02-24T06:15:43.821Z,99369.59
2024-02-24T06:18:17.067Z,99367.81
2024-02-24T06:20:49.205Z,99373.00
2024-02-24T06:23:21.348Z,99373.81
2024-02-24T06:25:53.875Z,99373.84
2024-02-24T06:28:25.800Z,99375.50
2024-02-24T06:30:58.956Z,99375.41
2024-02-24T06:33:30.992Z,99374.53
2024-02-24T06:36:07.053Z,99378.81
2024-02-24T06:38:39.103Z,99370.09
2024-02-24T06:41:11.129Z,99378.03
2024-02-24T06:43:43.164Z,99379.69
2024-02-24T06:46:15.694Z,99392.84
2024-02-24T06:48:47.951Z,99391.16
2024-02-24T06:51:20.455Z,99399.81
2024-02-24T06:53:55.707Z,99396.38
2024-02-24T06:56:27.745Z,99400.63
2024-02-24T06:59:01.297Z,99397.06
2024-02-24T07:01:34.162Z,99404.97
2024-02-24T07:04:06.496Z,99413.75
2024-02-24T07:06:38.696Z,99409.44
2024-02-24T07:09:11.068Z,99406.88
2024-02-24T07:11:43.105Z,99407.69
2024-02-24T07:14:15.160Z,99412.94
2024-02-24T07:16:47.056Z,99416.44
2024-02-24T07:19:19.068Z,99420.69
2024-02-24T07:21:51.043Z,99419.88
2024-02-24T07:24:23.072Z,99428.63
2024-02-24T07:26:55.171Z,99425.09
2024-02-24T07:29:27.180Z,99428.63
2024-02-24T07:31:59.329Z,99439.03
2024-02-24T07:34:31.637Z,99435.53
2024-02-24T07:37:03.965Z,99445.25
2024-02-24T07:39:37.481Z,99450.50
2024-02-24T07:42:09.375Z,99453.09
2024-02-24T07:44:41.435Z,99463.69
2024-02-24T07:47:13.519Z,99473.38
2024-02-24T07:49:46.778Z,99469.00
2024-02-24T07:52:19.728Z,99473.38
2024-02-24T07:54:51.701Z,99468.81
2024-02-24T07:57:23.671Z,99486.00
2024-02-24T07:59:55.872Z,99488.63
2024-02-24T08:02:28.209Z,99502.31
2024-02-24T08:05:00.730Z,99511.50
2024-02-24T08:07:33.669Z,99535.69
2024-02-24T08:10:06.420Z,99525.78
2024-02-24T08:12:38.606Z,99529.09
2024-02-24T08:15:11.280Z,99522.84
2024-02-24T08:17:43.421Z,99526.44
2024-02-24T08:20:16.013Z,99536.13
2024-02-24T08:22:48.560Z,99538.47
2024-02-24T08:25:20.577Z,99540.91
2024-02-24T08:27:52.854Z,99544.28
2024-02-24T08:30:24.762Z,99555.53
2024-02-24T08:32:56.747Z,99552.75
2024-02-24T08:35:28.846Z,99552.56
2024-02-24T08:38:00.827Z,99548.97
2024-02-24T08:40:33.818Z,99555.06
2024-02-24T08:43:05.752Z,99571.50
2024-02-24T08:45:37.861Z,99564.63
2024-02-24T08:48:14.045Z,99561.88
2024-02-24T08:50:46.369Z,99576.03
2024-02-24T08:53:18.383Z,99587.53
2024-02-24T08:55:50.315Z,99583.97
2024-02-24T08:58:22.363Z,99583.16
2024-02-24T09:00:55.681Z,99585.66
2024-02-24T09:03:27.795Z,99601.28
2024-02-24T09:06:00.604Z,99558.09
2024-02-24T09:08:32.859Z,99588.91
2024-02-24T09:11:05.664Z,99594.31
2024-02-24T09:13:37.659Z,99609.13
2024-02-24T09:16:09.577Z,99600.56
2024-02-24T09:18:41.570Z,99604.09
2024-02-24T09:21:13.724Z,99611.81
2024-02-24T09:23:45.706Z,99619.66
2024-02-24T09:26:17.784Z,99612.72
2024-02-24T09:28:49.712Z,99618.91
2024-02-24T09:31:21.753Z,99611.00
2024-02-24T09:33:56.938Z,99631.28
2024-02-24T09:36:28.997Z,99616.28
2024-02-24T09:39:02.108Z,99625.94
2024-02-24T09:41:34.131Z,99626.06
2024-02-24T09:44:06.113Z,99635.72
2024-02-24T09:46:39.926Z,99632.28
2024-02-24T09:49:15.245Z,99641.06
2024-02-24T09:51:49.281Z,99640.13
2024-02-24T09:54:21.512Z,99643.69
2024-02-24T09:56:57.790Z,99637.66
2024-02-24T09:59:30.616Z,99624.31
2024-02-24T10:02:02.598Z,99642.78
2024-02-24T10:04:35.078Z,99647.47
2024-02-24T10:07:07.828Z,99648.09
2024-02-24T10:09:39.868Z,99659.25
2024-02-24T10:12:11.928Z,99650.84
2024-02-24T10:14:44.276Z,99657.75
2024-02-24T10:17:16.343Z,99650.84
2024-02-24T10:19:48.513Z,99653.53
2024-02-24T10:22:20.572Z,99655.34
2024-02-24T10:24:52.536Z,99651.97
2024-02-24T10:27:28.811Z,99663.16
2024-02-24T10:30:05.730Z,99660.63
2024-02-24T10:32:40.437Z,99662.41
2024-02-24T10:35:12.793Z,99663.38
2024-02-24T10:38:03.135Z,99660.03
2024-02-24T10:40:38.713Z,99667.44
2024-02-24T10:43:10.914Z,99663.16
2024-02-24T10:45:42.926Z,99666.16
2024-02-24T10:48:15.108Z,99670.69
2024-02-24T10:50:47.839Z,99664.81
2024-02-24T10:53:29.153Z,99669.06
2024-02-24T10:56:03.342Z,99685.72
2024-02-24T10:58:36.378Z,99683.59
2024-02-24T11:01:10.259Z,99676.72
2024-02-24T11:03:43.203Z,99688.94
2024-02-24T11:06:16.278Z,99678.28
2024-02-24T11:08:51.482Z,99691.06
2024-02-24T11:11:23.695Z,99690.03
2024-02-24T11:14:04.296Z,99704.59
2024-02-24T11:16:44.262Z,99703.78
2024-02-24T11:19:47.285Z,99704.44
2024-02-24T11:22:28.481Z,99713.03
2024-02-24T11:25:05.375Z,99704.91
2024-02-24T11:27:41.870Z,99713.53
2024-02-24T11:30:35.689Z,99716.75
2024-02-24T11:33:29.101Z,99722.97
2024-02-24T11:36:04.079Z,99727.34
2024-02-24T11:38:36.241Z,99714.13
2024-02-24T11:41:08.219Z,99724.75
2024-02-24T11:43:40.330Z,99727.41
2024-02-24T11:46:12.907Z,99721.38
2024-02-24T11:48:45.017Z,99726.63
2024-02-24T11:51:17.197Z,99733.78
2024-02-24T11:53:49.480Z,99725.19
2024-02-24T11:56:21.516Z,99719.22
2024-02-24T11:58:57.963Z,99697.94
2024-02-24T12:01:33.049Z,99744.63
2024-02-24T12:04:05.656Z,99739.31
2024-02-24T12:06:38.826Z,99740.88
2024-02-24T12:09:11.615Z,99731.16
2024-02-24T12:11:44.249Z,99738.06
2024-02-24T12:14:16.374Z,99742.41
2024-02-24T12:16:48.464Z,99733.50
2024-02-24T12:19:20.590Z,99740.63
2024-02-24T12:21:52.551Z,99738.09
2024-02-24T12:24:30.979Z,99737.22
2024-02-24T12:27:03.526Z,99732.81
2024-02-24T12:29:35.922Z,99739.59
2024-02-24T12:32:09.148Z,99748.25
2024-02-24T12:34:41.290Z,99730.84
2024-02-24T12:37:14.727Z,99738.03
2024-02-24T12:39:46.646Z,99735.56
2024-02-24T12:42:18.600Z,99740.97
2024-02-24T12:44:50.589Z,99747.25
2024-02-24T12:47:22.890Z,99753.25
2024-02-24T12:49:55.045Z,99747.84
2024-02-24T12:52:27.082Z,99746.91
2024-02-24T12:54:59.080Z,99753.94
2024-02-24T12:57:31.025Z,99753.25
2024-02-24T13:00:05.940Z,99716.38
2024-02-24T13:02:38.726Z,99758.81
2024-02-24T13:05:10.856Z,99751.19
2024-02-24T13:07:43.094Z,99739.19
2024-02-24T13:10:15.216Z,99751.66
2024-02-24T13:12:47.457Z,99754.34
2024-02-24T13:15:19.790Z,99755.16
2024-02-24T13:17:51.854Z,99747.31
2024-02-24T13:20:23.929Z,99754.41
2024-02-24T13:22:55.902Z,99754.41
2024-02-24T13:25:28.052Z,99751.84
2024-02-24T13:28:00.227Z,99757.03
2024-02-24T13:30:32.314Z,99756.13
2024-02-24T13:33:04.897Z,99749.19
2024-02-24T13:35:37.074Z,99762.53
2024-02-24T13:38:10.168Z,99763.44
2024-02-24T13:40:43.078Z,99747.38
2024-02-24T13:43:15.227Z,99764.94
2024-02-24T13:45:47.245Z,99764.13
2024-02-24T13:48:19.436Z,99778.97
2024-02-24T13:50:51.582Z,99772.13
2024-02-24T13:53:23.675Z,99778.47
2024-02-24T13:55:55.829Z,99767.38
2024-02-24T13:58:28.994Z,99769.22
2024-02-24T14:01:01.084Z,99776.31
2024-02-24T14:03:33.100Z,99775.50
2024-02-24T14:06:06.282Z,99779.84
2024-02-24T14:08:39.436Z,99777.03
2024-02-24T14:11:11.620Z,99780.50
2024-02-24T14:13:43.649Z,99778.94
2024-02-24T14:16:15.692Z,99788.78
2024-02-24T14:18:47.817Z,99778.84
2024-02-24T14:21:20.127Z,99790.28
2024-02-24T14:23:53.329Z,99797.56
2024-02-24T14:26:25.426Z,99793.16
2024-02-24T14:29:01.231Z,99797.50
2024-02-24T14:31:34.304Z,99791.03
2024-02-24T14:34:06.360Z,99800.31
2024-02-24T14:36:38.406Z,99799.38
2024-02-24T14:39:11.330Z,99797.69
2024-02-24T14:41:43.499Z,99800.44
2024-02-24T14:44:15.496Z,99782.59
2024-02-24T14:47:08.722Z,99798.19
2024-02-24T14:49:40.935Z,99808.75
2024-02-24T14:52:12.943Z,99805.69
2024-02-24T14:54:44.999Z,99806.06
2024-02-24T14:57:17.148Z,99814.06
2024-02-24T14:59:49.215Z,99818.34
2024-02-24T15:02:30.436Z,99812.25
2024-02-24T15:05:14.472Z,99809.06
2024-02-24T15:07:46.606Z,99815.56
2024-02-24T15:10:18.656Z,99818.78
2024-02-24T15:12:53.238Z,99816.44
2024-02-24T15:15:25.305Z,99817.91
2024-02-24T15:17:59.658Z,99829.09
2024-02-24T15:20:31.808Z,99822.91
2024-02-24T15:23:05.562Z,99824.50
2024-02-24T15:25:37.504Z,99827.72
2024-02-24T15:28:09.627Z,99832.63
2024-02-24T15:30:41.806Z,99834.94
2024-02-24T15:33:14.321Z,99828.50
2024-02-24T15:35:46.397Z,99830.03
2024-02-24T15:38:18.427Z,99830.41
2024-02-24T15:40:50.395Z,99824.78
2024-02-24T15:43:22.370Z,99827.78
2024-02-24T15:45:54.683Z,99825.44
2024-02-24T15:48:26.844Z,99823.66
2024-02-24T15:50:59.083Z,99829.69
2024-02-24T15:53:31.092Z,99833.03
2024-02-24T15:56:05.063Z,99826.84
2024-02-24T15:58:38.515Z,99826.34
2024-02-24T16:01:11.005Z,99825.03
2024-02-24T16:03:44.562Z,99828.78
2024-02-24T16:06:16.701Z,99827.66
2024-02-24T16:08:48.885Z,99842.16
2024-02-24T16:11:24.248Z,99847.00
2024-02-24T16:13:59.230Z,99855.34
2024-02-24T16:16:32.074Z,99855.66
2024-02-24T16:19:04.250Z,99862.28
2024-02-24T16:21:42.473Z,99868.13
2024-02-24T16:24:14.939Z,99868.84
2024-02-24T16:26:50.995Z,99868.75
2024-02-24T16:29:22.960Z,99859.03
2024-02-24T16:31:54.961Z,99862.34
2024-02-24T16:34:27.094Z,99863.13
2024-02-24T16:36:59.136Z,99876.22
2024-02-24T16:39:34.161Z,99868.38
2024-02-24T16:42:07.416Z,99863.81
2024-02-24T16:44:39.516Z,99873.38
2024-02-24T16:47:11.477Z,99871.59
2024-02-24T16:49:43.495Z,99864.69
2024-02-24T16:52:15.465Z,99862.13
2024-02-24T16:54:47.416Z,99866.50
2024-02-24T16:57:19.478Z,99874.28
2024-02-24T16:59:51.525Z,99866.41
2024-02-24T17:02:23.556Z,99866.41
2024-02-24T17:04:57.097Z,99868.97
2024-02-24T17:07:29.239Z,99868.88
2024-02-24T17:10:01.279Z,99873.28
2024-02-24T17:12:33.469Z,99875.91
2024-02-24T17:15:07.393Z,99885.56
2024-02-24T17:17:40.983Z,99864.47
2024-02-24T17:20:13.045Z,99888.16
2024-02-24T17:22:45.075Z,99886.38
2024-02-24T17:25:16.990Z,99886.22
2024-02-24T17:27:49.531Z,99890.50
2024-02-24T17:30:23.902Z,99886.91
2024-02-24T17:32:56.056Z,99886.88
2024-02-24T17:35:29.092Z,99888.63
2024-02-24T17:38:03.361Z,99889.53
2024-02-24T17:40:35.576Z,99892.13
2024-02-24T17:43:07.522Z,99894.53
2024-02-24T17:45:39.694Z,99897.94
2024-02-24T17:48:11.840Z,99900.56
2024-02-24T17:50:44.166Z,99903.25
2024-02-24T17:53:18.997Z,99904.03
2024-02-24T17:55:51.236Z,99903.19
2024-02-24T17:58:32.224Z,99898.50
2024-02-24T18:01:12.649Z,99896.25
2024-02-24T18:03:44.715Z,99890.75
2024-02-24T18:06:16.947Z,99902.22
2024-02-24T18:08:49.087Z,99894.28
2024-02-24T18:11:23.634Z,99899.44
2024-02-24T18:13:55.664Z,99899.44
2024-02-24T18:16:27.707Z,99910.00
2024-02-24T18:18:59.748Z,99909.91
2024-02-24T18:21:31.820Z,99906.44
2024-02-24T18:24:04.089Z,99911.69
2024-02-24T18:26:36.131Z,99908.03
2024-02-24T18:29:08.706Z,99908.78
2024-02-24T18:31:40.669Z,99910.41
2024-02-24T18:34:13.874Z,99907.03
2024-02-24T18:36:46.137Z,99907.88
2024-02-24T18:39:18.219Z,99921.09
2024-02-24T18:41:50.223Z,99914.97
2024-02-24T18:44:22.268Z,99907.03
2024-02-24T18:46:54.369Z,99914.09
2024-02-24T18:49:29.860Z,99906.22
2024-02-24T18:52:03.553Z,99914.97
2024-02-24T18:54:35.498Z,99907.19
2024-02-24T18:57:07.500Z,99897.50
2024-02-24T18:59:44.633Z,99910.63
2024-02-24T19:02:17.911Z,99907.88
2024-02-24T19:04:51.632Z,99906.09
2024-02-24T19:07:23.889Z,99913.81
2024-02-24T19:09:55.975Z,99900.75
2024-02-24T19:12:28.181Z,99898.66
2024-02-24T19:15:00.345Z,99909.19
2024-02-24T19:17:33.681Z,99900.28
2024-02-24T19:20:07.078Z,99898.25
2024-02-24T19:22:39.153Z,99910.66
2024-02-24T19:25:13.096Z,99904.47
2024-02-24T19:27:47.601Z,99912.31
2024-02-24T19:30:19.748Z,99900.88
2024-02-24T19:32:51.928Z,99912.19
2024-02-24T19:35:24.177Z,99901.63
2024-02-24T19:37:56.092Z,99901.56
2024-02-24T19:40:28.457Z,99914.75
2024-02-24T19:43:00.395Z,99913.84
2024-02-24T19:45:32.399Z,99913.03
2024-02-24T19:48:04.993Z,99905.81
2024-02-24T19:50:37.056Z,99908.44
2024-02-24T19:53:09.042Z,99906.78
2024-02-24T19:55:41.093Z,99904.09
2024-02-24T19:58:21.288Z,99905.00
2024-02-24T20:01:01.754Z,99915.44
2024-02-24T20:03:34.887Z,99909.47
2024-02-24T20:06:08.659Z,99903.38
2024-02-24T20:08:40.817Z,99906.88
2024-02-24T20:11:13.048Z,99904.25
2024-02-24T20:13:45.150Z,99905.09
2024-02-24T20:16:17.177Z,99907.63
2024-02-24T20:18:49.550Z,99901.34
2024-02-24T20:21:21.742Z,99911.03
2024-02-24T20:23:53.808Z,99897.75
2024-02-24T20:26:25.894Z,99903.22
2024-02-24T20:28:58.740Z,99899.69
2024-02-24T20:31:30.725Z,99903.06
2024-02-24T20:34:07.984Z,99898.63
2024-02-24T20:36:41.015Z,99890.72
2024-02-24T20:39:14.406Z,99890.78
2024-02-24T20:41:46.466Z,99895.22
2024-02-24T20:44:18.684Z,99889.91
2024-02-24T20:46:52.884Z,99895.22
2024-02-24T20:49:26.042Z,99899.59
2024-02-24T20:52:00.530Z,99890.78
2024-02-24T20:54:37.325Z,99889.91
2024-02-24T20:57:09.323Z,99881.06
2024-02-24T20:59:41.362Z,99896.03
2024-02-24T21:02:13.500Z,99896.03
2024-02-24T21:04:45.620Z,99894.25
2024-02-24T21:07:17.593Z,99895.94
2024-02-24T21:09:49.594Z,99890.72
2024-02-24T21:12:21.724Z,99888.94
2024-02-24T21:14:53.889Z,99888.16
2024-02-24T21:17:26.104Z,99885.38
2024-02-24T21:20:04.493Z,99883.59
2024-02-24T21:22:37.303Z,99885.31
2024-02-24T21:25:11.212Z,99883.69
2024-02-24T21:27:44.434Z,99886.31
2024-02-24T21:30:16.656Z,99881.94
2024-02-24T21:32:51.892Z,99879.25
2024-02-24T21:35:31.168Z,99881.84
2024-02-24T21:38:04.027Z,99870.53
2024-02-24T21:40:36.021Z,99883.53
2024-02-24T21:43:08.102Z,99874.84
2024-02-24T21:45:40.167Z,99866.94
2024-02-24T21:48:12.237Z,99880.06
2024-02-24T21:50:44.664Z,99871.41
2024-02-24T21:53:16.677Z,99858.38
2024-02-24T21:55:48.646Z,99867.03
2024-02-24T21:58:20.577Z,99857.47
2024-02-24T22:00:52.824Z,99867.94
2024-02-24T22:03:25.172Z,99857.41
2024-02-24T22:05:57.611Z,99864.50
2024-02-24T22:08:29.746Z,99855.72
2024-02-24T22:11:01.748Z,99852.09
2024-02-24T22:13:33.786Z,99854.78
2024-02-24T22:16:12.643Z,99859.25
2024-02-24T22:18:45.378Z,99859.25
2024-02-24T22:21:18.596Z,99848.97
2024-02-24T22:23:51.675Z,99848.97
2024-02-24T22:26:25.319Z,99829.84
2024-02-24T22:28:57.536Z,99844.06
2024-02-24T22:31:29.607Z,99850.94
2024-02-24T22:34:01.628Z,99847.34
2024-02-24T22:36:33.622Z,99838.63
2024-02-24T22:39:05.762Z,99834.47
2024-02-24T22:41:37.849Z,99831.84
2024-02-24T22:44:09.780Z,99835.34
2024-02-24T22:46:41.751Z,99832.00
2024-02-24T22:49:14.146Z,99832.00
2024-02-24T22:51:46.314Z,99825.88
2024-02-24T22:54:18.349Z,99817.16
2024-02-24T22:56:50.316Z,99823.19
2024-02-24T22:59:22.432Z,99805.69
2024-02-24T23:01:54.402Z,99794.94
2024-02-24T23:04:26.379Z,99811.59
2024-02-24T23:06:58.608Z,99795.06
2024-02-24T23:09:30.619Z,99800.28
2024-02-24T23:12:02.795Z,99794.13
2024-02-24T23:14:34.810Z,99795.00
2024-02-24T23:17:06.845Z,99788.91
2024-02-24T23:19:38.874Z,99791.59
2024-02-24T23:22:11.130Z,99791.59
2024-02-24T23:24:43.106Z,99792.47
2024-02-24T23:27:15.351Z,99776.78
2024-02-24T23:29:47.494Z,99780.22
2024-02-24T23:32:21.837Z,99781.13
2024-02-24T23:34:53.910Z,99778.53
2024-02-24T23:37:25.978Z,99782.84
2024-02-24T23:39:57.989Z,99763.44
2024-02-24T23:42:29.990Z,99791.59
2024-02-24T23:45:02.039Z,99784.41
2024-02-24T23:47:34.217Z,99786.19
2024-02-24T23:50:06.890Z,99787.91
2024-02-24T23:52:40.628Z,99788.81
2024-02-24T23:55:12.657Z,99791.41
2024-02-24T23:57:44.630Z,99787.88
